Forside
METAR-TAF:

METAR-TAF

Lufthavne :

Hohn, Tyskland

Breddekreds: 54-19N, længdekreds: 009-32E, højde: 12 m

Aktuelle vejr

Denne rapport blev lavet for 1 time og 10 minutter siden, kl. 03:20 UTC
Vind 14 kt fra vestsydvest med vindstød på up til 25 kt
Temperatur 6°C
Fugtighed 81%
Tryk 1013 hPa
Sigt 10 km eller mere
Brudte skyer i en højde af 1500 ft
Spredte skyer i en højde af 3000 ft

METAR: ETNH 180320Z 24014G25KT 9999 BKN015 SCT030 06/03 Q1013 WHT

Tid: 05:30 (04:30 UTC)

Vejrudsigter

Denne rapport blev lavet for 5 timer og 30 minutter siden, kl. 23:00 UTC
Foreløbig gælder fra 18 på 00 UTC til 18 på 12 UTC
Vind 12 kt fra sydsydvest
Sigt 10 km eller mere
Nogle få skyer i en højde af 2000 ft
Brudte skyer i en højde af 4000 ft
Midlertidig
fra 18 på 00 UTC til 18 på 12 UTC
Vind 10 kt fra sydvest med vindstød på up til 28 kt
Sigt: 4000 m
Brudte skyer i en højde af 1000 ft
Brudte skyer i en højde af 2000 ft
regn, finregn

TAF: ETNH 172300Z 1800/1812 21012KT 9999 NSW FEW020 BKN040 TEMPO 1800/1812 23010G28KT 4000 RADZ BKN010 BKN020 BY ETGL

Vejrobservationer og prognoser fra mere end 4000 lufthavne (METAR og TAF).

De gule og røde prikker repræsenterer de meteorologiske stationer.

Flyt musen over at se navnet på stationen.

Så klik over at se vejr observationer og prognoser.

At skifte det kort: Klik på de grønne knapper med et sort kors for at zoome ind; på den grønne knap med en bindestreg for at zoome ud; eller på de grønne pile for tilstødende kort.


METAR-TAF: